sensor_id;sensor_type;location;lat;lon;timestamp;pressure;altitude;pressure_sealevel;temperature;humidity
37792;BME280;29527;55.766;37.570;2022-08-24T00:02:02;101032.44;;;24.02;39.60
37792;BME280;29527;55.766;37.570;2022-08-24T00:04:28;101038.06;;;24.00;40.03
37792;BME280;29527;55.766;37.570;2022-08-24T00:06:54;101033.44;;;24.01;40.04
37792;BME280;29527;55.766;37.570;2022-08-24T00:09:19;101039.94;;;24.00;40.02
37792;BME280;29527;55.766;37.570;2022-08-24T00:11:45;101043.06;;;23.97;40.20
37792;BME280;29527;55.766;37.570;2022-08-24T00:14:12;101039.66;;;23.94;40.27
37792;BME280;29527;55.766;37.570;2022-08-24T00:16:38;101047.19;;;23.92;40.62
37792;BME280;29527;55.766;37.570;2022-08-24T00:19:04;101030.16;;;23.82;40.17
37792;BME280;29527;55.766;37.570;2022-08-24T00:21:29;101041.22;;;23.89;40.25
37792;BME280;29527;55.766;37.570;2022-08-24T00:23:55;101047.19;;;23.92;40.41
37792;BME280;29527;55.766;37.570;2022-08-24T00:26:20;101047.56;;;23.89;40.47
37792;BME280;29527;55.766;37.570;2022-08-24T00:28:46;101046.19;;;23.85;40.45
37792;BME280;29527;55.766;37.570;2022-08-24T00:31:12;101040.38;;;23.88;40.39
37792;BME280;29527;55.766;37.570;2022-08-24T00:33:38;101050.63;;;23.86;40.55
37792;BME280;29527;55.766;37.570;2022-08-24T00:36:05;101051.66;;;23.85;40.63
37792;BME280;29527;55.766;37.570;2022-08-24T00:38:31;101059.19;;;23.83;40.74
37792;BME280;29527;55.766;37.570;2022-08-24T00:40:57;101048.25;;;23.83;40.80
37792;BME280;29527;55.766;37.570;2022-08-24T00:43:24;101057.13;;;23.85;40.75
37792;BME280;29527;55.766;37.570;2022-08-24T00:46:18;101056.44;;;23.91;40.43
37792;BME280;29527;55.766;37.570;2022-08-24T00:48:46;101051.88;;;23.84;40.84
37792;BME280;29527;55.766;37.570;2022-08-24T00:51:21;101052.75;;;23.76;41.51
37792;BME280;29527;55.766;37.570;2022-08-24T00:53:51;101058.41;;;23.74;41.54
37792;BME280;29527;55.766;37.570;2022-08-24T00:56:26;101064.44;;;23.70;41.31
37792;BME280;29527;55.766;37.570;2022-08-24T00:58:58;101058.97;;;23.70;41.49
37792;BME280;29527;55.766;37.570;2022-08-24T01:01:25;101057.28;;;23.60;41.57
37792;BME280;29527;55.766;37.570;2022-08-24T01:03:52;101055.59;;;23.59;41.69
37792;BME280;29527;55.766;37.570;2022-08-24T01:06:19;101053.88;;;23.58;41.66
37792;BME280;29527;55.766;37.570;2022-08-24T01:08:45;101053.59;;;23.53;41.88
37792;BME280;29527;55.766;37.570;2022-08-24T01:11:14;101060.75;;;23.54;41.74
37792;BME280;29527;55.766;37.570;2022-08-24T01:13:44;101062.81;;;23.52;42.12
37792;BME280;29527;55.766;37.570;2022-08-24T01:16:12;101052.63;;;23.46;42.42
37792;BME280;29527;55.766;37.570;2022-08-24T01:18:39;101058.44;;;23.43;42.70
37792;BME280;29527;55.766;37.570;2022-08-24T01:21:17;101051.81;;;23.69;41.30
37792;BME280;29527;55.766;37.570;2022-08-24T01:23:55;101056.84;;;23.48;42.65
37792;BME280;29527;55.766;37.570;2022-08-24T01:26:36;101054.16;;;23.40;42.82
37792;BME280;29527;55.766;37.570;2022-08-24T01:29:10;101060.53;;;23.32;43.05
37792;BME280;29527;55.766;37.570;2022-08-24T01:31:37;101030.38;;;23.09;43.58
37792;BME280;29527;55.766;37.570;2022-08-24T01:34:04;101060.03;;;23.20;43.65
37792;BME280;29527;55.766;37.570;2022-08-24T01:38:57;101061.25;;;23.18;43.84
37792;BME280;29527;55.766;37.570;2022-08-24T01:41:25;101028.53;;;23.01;43.63
37792;BME280;29527;55.766;37.570;2022-08-24T01:43:51;101059.19;;;23.12;43.93
37792;BME280;29527;55.766;37.570;2022-08-24T01:46:17;101061.47;;;23.08;44.16
37792;BME280;29527;55.766;37.570;2022-08-24T01:48:42;101053.44;;;23.06;44.52
37792;BME280;29527;55.766;37.570;2022-08-24T01:51:08;101058.88;;;23.06;44.44
37792;BME280;29527;55.766;37.570;2022-08-24T01:53:33;101054.66;;;23.04;44.60
37792;BME280;29527;55.766;37.570;2022-08-24T01:55:59;101065.56;;;23.04;44.22
37792;BME280;29527;55.766;37.570;2022-08-24T01:58:25;101062.50;;;22.99;44.57
37792;BME280;29527;55.766;37.570;2022-08-24T02:00:50;101065.22;;;22.99;44.51
37792;BME280;29527;55.766;37.570;2022-08-24T02:03:16;101063.03;;;22.94;45.06
37792;BME280;29527;55.766;37.570;2022-08-24T02:05:41;101065.78;;;22.94;45.15
37792;BME280;29527;55.766;37.570;2022-08-24T02:08:07;101065.78;;;22.94;44.89
37792;BME280;29527;55.766;37.570;2022-08-24T02:10:32;101067.13;;;22.98;44.99
37792;BME280;29527;55.766;37.570;2022-08-24T02:12:59;101076.34;;;22.97;45.10
37792;BME280;29527;55.766;37.570;2022-08-24T02:15:27;101073.78;;;22.96;45.04
37792;BME280;29527;55.766;37.570;2022-08-24T02:17:53;101064.06;;;22.93;45.27
37792;BME280;29527;55.766;37.570;2022-08-24T02:20:20;101070.56;;;22.92;45.29
37792;BME280;29527;55.766;37.570;2022-08-24T02:22:47;101072.06;;;22.94;45.54
37792;BME280;29527;55.766;37.570;2022-08-24T02:25:13;101078.41;;;22.95;45.09
37792;BME280;29527;55.766;37.570;2022-08-24T02:27:38;101076.69;;;22.94;45.15
37792;BME280;29527;55.766;37.570;2022-08-24T02:30:04;101073.63;;;22.89;45.17
37792;BME280;29527;55.766;37.570;2022-08-24T02:32:29;101069.03;;;22.89;45.37
37792;BME280;29527;55.766;37.570;2022-08-24T02:34:55;101071.75;;;22.89;45.31
37792;BME280;29527;55.766;37.570;2022-08-24T02:37:20;101069.84;;;22.90;45.13
37792;BME280;29527;55.766;37.570;2022-08-24T02:39:46;101073.63;;;22.89;45.17
37792;BME280;29527;55.766;37.570;2022-08-24T02:42:11;101069.19;;;22.88;45.36
37792;BME280;29527;55.766;37.570;2022-08-24T02:44:37;101078.75;;;22.92;45.08
37792;BME280;29527;55.766;37.570;2022-08-24T02:47:02;101079.06;;;22.97;44.96
37792;BME280;29527;55.766;37.570;2022-08-24T02:49:28;101054.53;;;22.80;44.93
37792;BME280;29527;55.766;37.570;2022-08-24T02:51:54;101067.47;;;22.95;45.18
37792;BME280;29527;55.766;37.570;2022-08-24T02:54:20;101080.56;;;23.08;45.04
37792;BME280;29527;55.766;37.570;2022-08-24T02:56:46;101075.25;;;23.15;44.31
37792;BME280;29527;55.766;37.570;2022-08-24T02:59:12;101071.97;;;23.19;44.20
37792;BME280;29527;55.766;37.570;2022-08-24T03:01:38;101059.56;;;23.08;44.29
37792;BME280;29527;55.766;37.570;2022-08-24T03:04:04;101085.81;;;23.26;43.87
37792;BME280;29527;55.766;37.570;2022-08-24T03:06:30;101075.72;;;23.27;43.75
37792;BME280;29527;55.766;37.570;2022-08-24T03:08:55;101085.81;;;23.26;44.15
37792;BME280;29527;55.766;37.570;2022-08-24T03:11:21;101085.31;;;23.31;43.76
37792;BME280;29527;55.766;37.570;2022-08-24T03:13:46;101090.72;;;23.39;43.48
37792;BME280;29527;55.766;37.570;2022-08-24T03:16:12;101090.88;;;23.46;43.00
37792;BME280;29527;55.766;37.570;2022-08-24T03:18:37;101085.88;;;23.49;43.42
37792;BME280;29527;55.766;37.570;2022-08-24T03:21:04;101091.34;;;23.49;43.16
37792;BME280;29527;55.766;37.570;2022-08-24T03:23:29;101088.13;;;23.46;43.26
37792;BME280;29527;55.766;37.570;2022-08-24T03:25:55;101078.41;;;23.43;42.90
37792;BME280;29527;55.766;37.570;2022-08-24T03:28:22;101108.53;;;23.67;42.59
37792;BME280;29527;55.766;37.570;2022-08-24T03:30:49;101108.31;;;23.76;42.35
37792;BME280;29527;55.766;37.570;2022-08-24T03:33:15;101102.59;;;23.86;42.34
37792;BME280;29527;55.766;37.570;2022-08-24T03:35:41;101094.00;;;23.98;41.97
37792;BME280;29527;55.766;37.570;2022-08-24T03:38:06;101096.28;;;24.17;41.61
37792;BME280;29527;55.766;37.570;2022-08-24T03:40:32;101096.66;;;24.52;40.77
37792;BME280;29527;55.766;37.570;2022-08-24T03:42:59;101084.66;;;24.92;40.09
37792;BME280;29527;55.766;37.570;2022-08-24T03:45:25;101098.56;;;25.87;37.95
37792;BME280;29527;55.766;37.570;2022-08-24T03:47:51;101097.22;;;26.99;35.98
37792;BME280;29527;55.766;37.570;2022-08-24T03:50:18;101107.22;;;28.17;33.90
37792;BME280;29527;55.766;37.570;2022-08-24T03:52:44;101091.41;;;29.39;31.82
37792;BME280;29527;55.766;37.570;2022-08-24T03:55:10;101090.66;;;30.35;29.78
37792;BME280;29527;55.766;37.570;2022-08-24T03:57:36;101090.63;;;30.86;28.75
37792;BME280;29527;55.766;37.570;2022-08-24T04:00:05;101096.38;;;31.28;28.18
37792;BME280;29527;55.766;37.570;2022-08-24T04:02:31;101091.16;;;32.00;27.12
37792;BME280;29527;55.766;37.570;2022-08-24T04:04:57;101078.13;;;32.55;26.01
37792;BME280;29527;55.766;37.570;2022-08-24T04:07:23;101092.56;;;33.28;25.35
37792;BME280;29527;55.766;37.570;2022-08-24T04:09:49;101086.28;;;34.03;24.17
37792;BME280;29527;55.766;37.570;2022-08-24T04:12:14;101090.38;;;34.86;23.03
37792;BME280;29527;55.766;37.570;2022-08-24T04:14:40;101100.22;;;35.33;22.42
37792;BME280;29527;55.766;37.570;2022-08-24T04:17:06;101100.19;;;36.05;21.48
37792;BME280;29527;55.766;37.570;2022-08-24T04:19:33;101097.31;;;36.65;20.90
37792;BME280;29527;55.766;37.570;2022-08-24T04:21:58;101093.75;;;37.18;19.97
37792;BME280;29527;55.766;37.570;2022-08-24T04:24:25;101105.56;;;37.46;19.79
37792;BME280;29527;55.766;37.570;2022-08-24T04:26:51;101103.13;;;37.70;19.43
37792;BME280;29527;55.766;37.570;2022-08-24T04:29:18;101104.91;;;38.28;18.77
37792;BME280;29527;55.766;37.570;2022-08-24T04:31:45;101086.16;;;38.60;18.19
37792;BME280;29527;55.766;37.570;2022-08-24T04:34:12;101113.13;;;39.16;17.58
37792;BME280;29527;55.766;37.570;2022-08-24T04:36:39;101106.91;;;39.90;16.78
37792;BME280;29527;55.766;37.570;2022-08-24T04:39:06;101104.16;;;40.50;16.18
37792;BME280;29527;55.766;37.570;2022-08-24T04:41:32;101112.13;;;41.21;15.43
37792;BME280;29527;55.766;37.570;2022-08-24T04:43:58;101115.31;;;41.77;14.52
37792;BME280;29527;55.766;37.570;2022-08-24T04:46:24;101110.22;;;42.31;13.94
37792;BME280;29527;55.766;37.570;2022-08-24T04:48:50;101117.78;;;42.16;14.11
37792;BME280;29527;55.766;37.570;2022-08-24T04:51:17;101112.31;;;42.39;14.03
37792;BME280;29527;55.766;37.570;2022-08-24T04:53:44;101098.13;;;42.64;13.73
37792;BME280;29527;55.766;37.570;2022-08-24T04:56:16;101118.72;;;43.34;13.43
37792;BME280;29527;55.766;37.570;2022-08-24T04:58:42;101111.84;;;43.63;12.77
37792;BME280;29527;55.766;37.570;2022-08-24T05:01:13;101108.66;;;44.15;12.39
37792;BME280;29527;55.766;37.570;2022-08-24T05:03:42;101105.66;;;44.84;11.85
37792;BME280;29527;55.766;37.570;2022-08-24T05:06:10;101090.94;;;44.96;11.46
37792;BME280;29527;55.766;37.570;2022-08-24T05:08:36;101109.09;;;45.04;11.23
37792;BME280;29527;55.766;37.570;2022-08-24T05:11:03;101108.13;;;43.91;12.34
37792;BME280;29527;55.766;37.570;2022-08-24T05:13:31;101101.59;;;42.88;13.33
37792;BME280;29527;55.766;37.570;2022-08-24T05:15:57;101106.38;;;42.88;12.97
37792;BME280;29527;55.766;37.570;2022-08-24T05:18:22;101106.59;;;42.92;13.24
37792;BME280;29527;55.766;37.570;2022-08-24T05:20:47;101103.16;;;43.73;12.62
37792;BME280;29527;55.766;37.570;2022-08-24T05:23:13;101108.94;;;45.17;11.31
37792;BME280;29527;55.766;37.570;2022-08-24T05:25:39;101113.69;;;46.19;10.71
37792;BME280;29527;55.766;37.570;2022-08-24T05:28:05;101106.41;;;47.05;9.90
37792;BME280;29527;55.766;37.570;2022-08-24T05:30:31;101102.03;;;47.80;9.23
37792;BME280;29527;55.766;37.570;2022-08-24T05:32:56;101105.44;;;48.65;8.71
37792;BME280;29527;55.766;37.570;2022-08-24T05:35:21;101097.75;;;49.28;8.22
37792;BME280;29527;55.766;37.570;2022-08-24T05:37:47;101100.72;;;49.07;8.32
37792;BME280;29527;55.766;37.570;2022-08-24T05:40:15;101109.84;;;49.00;8.62
37792;BME280;29527;55.766;37.570;2022-08-24T05:42:41;101103.53;;;49.32;7.98
37792;BME280;29527;55.766;37.570;2022-08-24T05:45:07;101106.69;;;48.77;8.58
37792;BME280;29527;55.766;37.570;2022-08-24T05:47:33;101098.97;;;49.15;8.26
37792;BME280;29527;55.766;37.570;2022-08-24T05:50:00;101113.53;;;50.39;7.69
37792;BME280;29527;55.766;37.570;2022-08-24T05:52:26;101100.81;;;51.37;7.25
37792;BME280;29527;55.766;37.570;2022-08-24T05:54:54;101111.78;;;52.14;6.30
37792;BME280;29527;55.766;37.570;2022-08-24T05:57:22;101114.06;;;52.28;6.03
37792;BME280;29527;55.766;37.570;2022-08-24T05:59:48;101101.88;;;52.07;6.36
37792;BME280;29527;55.766;37.570;2022-08-24T06:02:14;101109.94;;;52.02;6.36
37792;BME280;29527;55.766;37.570;2022-08-24T06:04:39;101107.66;;;51.91;6.38
37792;BME280;29527;55.766;37.570;2022-08-24T06:07:06;101094.38;;;51.79;6.72
37792;BME280;29527;55.766;37.570;2022-08-24T06:09:36;101110.63;;;52.65;6.40
37792;BME280;29527;55.766;37.570;2022-08-24T06:12:01;101103.28;;;53.18;6.17
37792;BME280;29527;55.766;37.570;2022-08-24T06:14:27;101092.88;;;53.67;5.98
37792;BME280;29527;55.766;37.570;2022-08-24T06:16:53;101105.84;;;54.78;4.95
37792;BME280;29527;55.766;37.570;2022-08-24T06:19:19;101103.94;;;54.44;5.21
37792;BME280;29527;55.766;37.570;2022-08-24T06:21:47;101106.56;;;54.67;4.89
37792;BME280;29527;55.766;37.570;2022-08-24T06:24:14;101107.69;;;55.08;4.92
37792;BME280;29527;55.766;37.570;2022-08-24T06:26:41;101106.22;;;55.43;4.71
37792;BME280;29527;55.766;37.570;2022-08-24T06:29:25;101094.53;;;56.21;4.44
37792;BME280;29527;55.766;37.570;2022-08-24T06:31:51;101103.50;;;56.88;3.84
37792;BME280;29527;55.766;37.570;2022-08-24T06:34:17;101100.22;;;56.86;3.69
37792;BME280;29527;55.766;37.570;2022-08-24T06:36:43;101105.50;;;57.13;3.59
37792;BME280;29527;55.766;37.570;2022-08-24T06:39:10;101098.00;;;57.48;3.25
37792;BME280;29527;55.766;37.570;2022-08-24T06:41:36;101101.06;;;56.98;3.65
37792;BME280;29527;55.766;37.570;2022-08-24T06:44:03;101098.16;;;57.01;3.68
37792;BME280;29527;55.766;37.570;2022-08-24T06:46:28;101113.78;;;56.89;3.18
37792;BME280;29527;55.766;37.570;2022-08-24T06:48:54;101103.56;;;56.63;2.96
37792;BME280;29527;55.766;37.570;2022-08-24T06:51:20;101103.16;;;56.43;3.22
37792;BME280;29527;55.766;37.570;2022-08-24T06:53:49;101100.72;;;56.34;3.10
37792;BME280;29527;55.766;37.570;2022-08-24T06:56:15;101095.75;;;56.27;3.18
37792;BME280;29527;55.766;37.570;2022-08-24T06:58:41;101107.19;;;55.87;3.53
37792;BME280;29527;55.766;37.570;2022-08-24T07:01:19;101110.97;;;56.42;3.69
37792;BME280;29527;55.766;37.570;2022-08-24T07:03:45;101099.84;;;56.19;3.54
37792;BME280;29527;55.766;37.570;2022-08-24T07:06:11;101099.03;;;56.15;3.18
37792;BME280;29527;55.766;37.570;2022-08-24T07:08:39;101092.06;;;56.48;3.25
37792;BME280;29527;55.766;37.570;2022-08-24T07:11:07;101101.91;;;56.47;3.12
37792;BME280;29527;55.766;37.570;2022-08-24T07:13:32;101094.88;;;56.88;2.80
37792;BME280;29527;55.766;37.570;2022-08-24T07:15:58;101091.25;;;56.70;2.93
37792;BME280;29527;55.766;37.570;2022-08-24T07:18:25;101095.31;;;56.98;2.86
37792;BME280;29527;55.766;37.570;2022-08-24T07:20:51;101085.00;;;57.93;2.29
37792;BME280;29527;55.766;37.570;2022-08-24T07:23:18;101105.72;;;58.72;2.07
37792;BME280;29527;55.766;37.570;2022-08-24T07:25:45;101094.16;;;58.75;2.42
37792;BME280;29527;55.766;37.570;2022-08-24T07:28:12;101075.50;;;58.87;2.10
37792;BME280;29527;55.766;37.570;2022-08-24T07:30:39;101095.97;;;59.63;1.84
37792;BME280;29527;55.766;37.570;2022-08-24T07:33:06;101095.94;;;59.66;2.21
37792;BME280;29527;55.766;37.570;2022-08-24T07:35:32;101085.16;;;59.39;2.00
37792;BME280;29527;55.766;37.570;2022-08-24T07:37:59;101083.72;;;59.24;2.04
37792;BME280;29527;55.766;37.570;2022-08-24T07:40:26;101085.41;;;59.80;1.57
37792;BME280;29527;55.766;37.570;2022-08-24T07:42:54;101089.13;;;60.31;1.47
37792;BME280;29527;55.766;37.570;2022-08-24T07:45:21;101088.75;;;60.06;1.98
37792;BME280;29527;55.766;37.570;2022-08-24T07:47:47;101081.00;;;59.71;1.47
37792;BME280;29527;55.766;37.570;2022-08-24T07:50:14;101085.59;;;59.03;2.32
37792;BME280;29527;55.766;37.570;2022-08-24T07:52:41;101083.94;;;58.25;2.43
37792;BME280;29527;55.766;37.570;2022-08-24T07:55:07;101068.31;;;57.59;2.37
37792;BME280;29527;55.766;37.570;2022-08-24T07:57:33;101072.69;;;56.85;3.06
37792;BME280;29527;55.766;37.570;2022-08-24T08:00:03;101074.41;;;56.06;3.02
37792;BME280;29527;55.766;37.570;2022-08-24T08:02:31;101070.78;;;55.03;3.63
37792;BME280;29527;55.766;37.570;2022-08-24T08:04:58;101038.88;;;53.65;4.30
37792;BME280;29527;55.766;37.570;2022-08-24T08:07:24;101062.81;;;52.89;4.42
37792;BME280;29527;55.766;37.570;2022-08-24T08:09:50;101053.44;;;51.72;5.23
37792;BME280;29527;55.766;37.570;2022-08-24T08:12:17;101051.22;;;49.08;7.22
37792;BME280;29527;55.766;37.570;2022-08-24T08:14:42;101043.81;;;46.50;8.08
37792;BME280;29527;55.766;37.570;2022-08-24T08:17:08;101039.13;;;43.97;9.36
37792;BME280;29527;55.766;37.570;2022-08-24T08:19:34;101041.56;;;41.99;10.61
37792;BME280;29527;55.766;37.570;2022-08-24T08:21:59;101050.00;;;40.19;12.12
37792;BME280;29527;55.766;37.570;2022-08-24T08:24:45;101047.53;;;38.62;13.34
37792;BME280;29527;55.766;37.570;2022-08-24T08:27:12;101064.00;;;37.70;14.26
37792;BME280;29527;55.766;37.570;2022-08-24T08:29:41;101061.22;;;36.96;14.49
37792;BME280;29527;55.766;37.570;2022-08-24T08:32:09;101059.56;;;36.52;15.37
37792;BME280;29527;55.766;37.570;2022-08-24T08:34:36;101052.59;;;36.12;16.10
37792;BME280;29527;55.766;37.570;2022-08-24T08:37:02;101050.81;;;35.73;16.13
37792;BME280;29527;55.766;37.570;2022-08-24T08:39:28;101047.13;;;35.45;16.32
37792;BME280;29527;55.766;37.570;2022-08-24T08:44:46;101046.22;;;35.34;15.51
37792;BME280;29527;55.766;37.570;2022-08-24T08:55:40;101054.72;;;34.83;16.17
37792;BME280;29527;55.766;37.570;2022-08-24T09:01:09;101056.31;;;34.05;16.20
37792;BME280;29527;55.766;37.570;2022-08-24T09:11:54;101050.34;;;33.84;16.21
37792;BME280;29527;55.766;37.570;2022-08-24T09:15:07;101039.59;;;33.59;15.82
37792;BME280;29527;55.766;37.570;2022-08-24T09:20:36;101038.19;;;33.03;17.16
37792;BME280;29527;55.766;37.570;2022-08-24T09:28:49;101030.25;;;33.07;15.87
37792;BME280;29527;55.766;37.570;2022-08-24T09:31:38;101025.78;;;33.06;15.68
37792;BME280;29527;55.766;37.570;2022-08-24T09:34:08;101023.34;;;33.21;15.92
37792;BME280;29527;55.766;37.570;2022-08-24T09:37:03;101036.75;;;33.42;15.83
37792;BME280;29527;55.766;37.570;2022-08-24T09:48:26;101011.25;;;33.28;15.68
37792;BME280;29527;55.766;37.570;2022-08-24T09:58:48;101019.69;;;33.21;15.76
37792;BME280;29527;55.766;37.570;2022-08-24T10:03:53;101015.84;;;33.22;16.00
37792;BME280;29527;55.766;37.570;2022-08-24T10:09:18;101004.59;;;33.00;16.18
37792;BME280;29527;55.766;37.570;2022-08-24T10:19:59;101007.97;;;32.90;16.48
37792;BME280;29527;55.766;37.570;2022-08-24T10:22:44;101017.38;;;33.01;16.30
37792;BME280;29527;55.766;37.570;2022-08-24T10:25:30;101013.53;;;32.90;16.31
37792;BME280;29527;55.766;37.570;2022-08-24T10:31:01;101034.03;;;32.89;15.39
37792;BME280;29527;55.766;37.570;2022-08-24T10:33:42;101013.41;;;32.85;15.59
37792;BME280;29527;55.766;37.570;2022-08-24T10:51:02;101001.25;;;32.74;15.20
37792;BME280;29527;55.766;37.570;2022-08-24T10:53:34;101013.19;;;32.62;15.81
37792;BME280;29527;55.766;37.570;2022-08-24T10:58:46;101001.16;;;32.57;15.69
37792;BME280;29527;55.766;37.570;2022-08-24T11:06:17;101006.34;;;32.41;16.09
37792;BME280;29527;55.766;37.570;2022-08-24T11:08:52;100994.38;;;32.53;15.87
37792;BME280;29527;55.766;37.570;2022-08-24T11:11:26;100987.63;;;32.60;16.27
37792;BME280;29527;55.766;37.570;2022-08-24T11:13:59;100999.91;;;32.64;16.17
37792;BME280;29527;55.766;37.570;2022-08-24T11:16:32;101009.31;;;32.63;16.22
37792;BME280;29527;55.766;37.570;2022-08-24T11:19:01;100993.78;;;32.50;16.12
37792;BME280;29527;55.766;37.570;2022-08-24T11:24:12;100978.13;;;32.56;15.76
37792;BME280;29527;55.766;37.570;2022-08-24T11:30:10;100972.16;;;32.76;15.52
37792;BME280;29527;55.766;37.570;2022-08-24T11:32:51;100976.88;;;32.76;15.98
37792;BME280;29527;55.766;37.570;2022-08-24T11:35:35;100977.22;;;32.79;15.60
37792;BME280;29527;55.766;37.570;2022-08-24T11:40:35;100983.75;;;32.73;15.62
37792;BME280;29527;55.766;37.570;2022-08-24T11:48:56;100961.47;;;32.56;16.46
37792;BME280;29527;55.766;37.570;2022-08-24T11:54:30;100960.41;;;32.45;16.14
37792;BME280;29527;55.766;37.570;2022-08-24T11:57:09;100957.03;;;32.43;15.74
37792;BME280;29527;55.766;37.570;2022-08-24T11:59:53;100963.09;;;32.40;15.71
37792;BME280;29527;55.766;37.570;2022-08-24T12:04:56;100914.41;;;31.97;15.92
37792;BME280;29527;55.766;37.570;2022-08-24T12:13:00;100963.44;;;32.20;16.14
37792;BME280;29527;55.766;37.570;2022-08-24T12:15:53;100953.56;;;32.12;15.75
37792;BME280;29527;55.766;37.570;2022-08-24T12:18:42;100949.69;;;32.13;15.94
37792;BME280;29527;55.766;37.570;2022-08-24T12:21:12;100955.13;;;32.08;16.28
37792;BME280;29527;55.766;37.570;2022-08-24T12:23:42;100943.56;;;32.11;15.98
37792;BME280;29527;55.766;37.570;2022-08-24T12:26:17;100932.97;;;32.08;15.95
37792;BME280;29527;55.766;37.570;2022-08-24T12:28:48;100952.47;;;32.37;16.04
37792;BME280;29527;55.766;37.570;2022-08-24T12:31:18;100948.59;;;32.14;15.97
37792;BME280;29527;55.766;37.570;2022-08-24T12:33:50;100947.53;;;32.03;16.40
37792;BME280;29527;55.766;37.570;2022-08-24T12:36:26;100937.28;;;32.04;16.00
37792;BME280;29527;55.766;37.570;2022-08-24T12:39:12;100934.66;;;32.09;16.45
37792;BME280;29527;55.766;37.570;2022-08-24T12:41:56;100946.66;;;32.03;16.38
37792;BME280;29527;55.766;37.570;2022-08-24T12:44:39;100958.47;;;31.98;16.26
37792;BME280;29527;55.766;37.570;2022-08-24T12:47:08;100958.56;;;31.79;16.46
37792;BME280;29527;55.766;37.570;2022-08-24T12:49:44;100949.25;;;31.74;16.59
37792;BME280;29527;55.766;37.570;2022-08-24T12:57:49;100926.00;;;31.51;17.02
37792;BME280;29527;55.766;37.570;2022-08-24T13:00:31;100937.47;;;31.67;17.45
37792;BME280;29527;55.766;37.570;2022-08-24T13:03:01;100934.09;;;31.64;16.73
37792;BME280;29527;55.766;37.570;2022-08-24T13:05:43;100935.03;;;31.70;16.40
37792;BME280;29527;55.766;37.570;2022-08-24T13:08:15;100931.03;;;31.54;16.71
37792;BME280;29527;55.766;37.570;2022-08-24T13:10:51;100927.34;;;31.60;16.87
37792;BME280;29527;55.766;37.570;2022-08-24T13:13:39;100928.56;;;31.64;16.82
37792;BME280;29527;55.766;37.570;2022-08-24T13:16:05;100918.66;;;31.57;16.82
37792;BME280;29527;55.766;37.570;2022-08-24T13:19:09;100916.91;;;31.74;16.91
37792;BME280;29527;55.766;37.570;2022-08-24T13:21:39;100915.31;;;31.67;17.03
37792;BME280;29527;55.766;37.570;2022-08-24T13:26:57;100910.13;;;31.70;17.49
37792;BME280;29527;55.766;37.570;2022-08-24T13:29:27;100910.97;;;31.71;17.43
37792;BME280;29527;55.766;37.570;2022-08-24T13:31:57;100905.31;;;31.65;17.19
37792;BME280;29527;55.766;37.570;2022-08-24T13:34:45;100906.34;;;31.83;17.09
37792;BME280;29527;55.766;37.570;2022-08-24T13:37:17;100903.28;;;31.73;17.63
37792;BME280;29527;55.766;37.570;2022-08-24T13:50:32;100895.69;;;31.68;17.74
37792;BME280;29527;55.766;37.570;2022-08-24T14:03:21;100886.16;;;31.52;17.71
37792;BME280;29527;55.766;37.570;2022-08-24T14:05:55;100893.88;;;31.50;17.77
37792;BME280;29527;55.766;37.570;2022-08-24T14:11:40;100895.34;;;31.64;17.63
37792;BME280;29527;55.766;37.570;2022-08-24T14:14:32;100903.38;;;31.66;17.19
37792;BME280;29527;55.766;37.570;2022-08-24T14:17:15;100903.66;;;31.64;17.49
37792;BME280;29527;55.766;37.570;2022-08-24T14:20:38;100897.50;;;31.62;17.45
37792;BME280;29527;55.766;37.570;2022-08-24T14:25:44;100896.50;;;31.45;17.36
37792;BME280;29527;55.766;37.570;2022-08-24T14:31:19;100878.72;;;31.64;16.97
37792;BME280;29527;55.766;37.570;2022-08-24T14:33:56;100890.03;;;31.63;17.26
37792;BME280;29527;55.766;37.570;2022-08-24T14:39:35;100873.09;;;31.71;16.86
37792;BME280;29527;55.766;37.570;2022-08-24T14:45:06;100874.03;;;31.65;16.85
37792;BME280;29527;55.766;37.570;2022-08-24T14:48:00;100875.84;;;31.59;16.93
37792;BME280;29527;55.766;37.570;2022-08-24T14:50:37;100879.41;;;31.48;16.73
37792;BME280;29527;55.766;37.570;2022-08-24T15:01:41;100871.06;;;31.24;16.62
37792;BME280;29527;55.766;37.570;2022-08-24T15:04:23;100877.31;;;31.19;16.56
37792;BME280;29527;55.766;37.570;2022-08-24T15:06:58;100868.72;;;31.09;16.70
37792;BME280;29527;55.766;37.570;2022-08-24T15:09:33;100868.13;;;31.07;17.11
37792;BME280;29527;55.766;37.570;2022-08-24T15:12:32;100869.41;;;31.04;16.92
37792;BME280;29527;55.766;37.570;2022-08-24T15:15:40;100860.28;;;31.04;16.68
37792;BME280;29527;55.766;37.570;2022-08-24T15:18:23;100863.16;;;30.97;17.00
37792;BME280;29527;55.766;37.570;2022-08-24T15:21:10;100866.44;;;31.06;17.06
37792;BME280;29527;55.766;37.570;2022-08-24T15:28:58;100861.91;;;30.62;17.53
37792;BME280;29527;55.766;37.570;2022-08-24T15:31:28;100856.91;;;30.53;17.96
37792;BME280;29527;55.766;37.570;2022-08-24T15:33:57;100852.53;;;30.45;17.79
37792;BME280;29527;55.766;37.570;2022-08-24T15:36:24;100860.06;;;30.38;17.94
37792;BME280;29527;55.766;37.570;2022-08-24T15:38:50;100865.44;;;30.32;18.07
37792;BME280;29527;55.766;37.570;2022-08-24T15:41:19;100864.84;;;30.30;18.44
37792;BME280;29527;55.766;37.570;2022-08-24T15:46:18;100863.22;;;30.22;18.35
37792;BME280;29527;55.766;37.570;2022-08-24T15:48:45;100861.00;;;30.13;18.66
37792;BME280;29527;55.766;37.570;2022-08-24T15:53:56;100857.50;;;29.99;18.88
37792;BME280;29527;55.766;37.570;2022-08-24T15:56:42;100852.91;;;29.92;18.79